Time;durP1;ratioP1;P1;durP2;ratioP2;P2;SDS_P1;SDS_P2;PMS_P1;PMS_P2;Temp;Humidity;BMP_temperature;BMP_pressure;BME280_temperature;BME280_humidity;BME280_pressure;Samples;Min_cycle;Max_cycle;Signal;HPM_P1;HPM_P2
2022/02/23 00:01:35;;;;;;;;;9.00;7.00;;;;;-149.00;100.00;66333.84;5082823;27;45527;-75
2022/02/23 00:04:01;;;;;;;;;10.00;8.67;;;;;-149.00;100.00;66333.84;5101391;27;45362;-75
2022/02/23 00:06:27;;;;;;;;;8.00;5.67;;;;;-149.00;100.00;66333.84;5101650;27;45427;-75
2022/02/23 00:08:53;;;;;;;;;9.33;8.33;;;;;-149.00;100.00;66333.84;5101057;27;45435;-76
2022/02/23 00:11:18;;;;;;;;;6.67;6.67;;;;;-149.00;100.00;66333.84;5082748;27;47203;-75
2022/02/23 00:13:44;;;;;;;;;12.00;12.00;;;;;-149.00;100.00;66333.84;5082805;27;45511;-75
2022/02/23 00:16:09;;;;;;;;;10.67;8.67;;;;;-149.00;100.00;66333.84;5101336;27;45354;-75
2022/02/23 00:18:35;;;;;;;;;7.00;7.00;;;;;-149.00;100.00;66333.84;5081682;27;45927;-75
2022/02/23 00:21:01;;;;;;;;;9.33;7.00;;;;;-149.00;100.00;66333.84;5101035;27;46179;-75
2022/02/23 00:23:26;;;;;;;;;6.00;6.00;;;;;-149.00;100.00;66333.84;5100952;27;45274;-75
2022/02/23 00:25:51;;;;;;;;;7.67;7.67;;;;;-149.00;100.00;66333.84;5101274;27;45260;-75
2022/02/23 00:28:17;;;;;;;;;10.33;8.00;;;;;-149.00;100.00;66333.84;5082473;27;47108;-75
2022/02/23 00:30:42;;;;;;;;;7.33;7.00;;;;;-149.00;100.00;66333.84;5100996;27;45331;-74
2022/02/23 00:33:08;;;;;;;;;12.00;9.00;;;;;-149.00;100.00;66333.84;5100927;27;45280;-75
2022/02/23 00:35:34;;;;;;;;;8.33;7.00;;;;;-149.00;100.00;66333.84;5082515;27;45276;-75
2022/02/23 00:37:59;;;;;;;;;7.00;6.33;;;;;-149.00;100.00;66333.84;5100852;27;45546;-74
2022/02/23 00:40:25;;;;;;;;;10.00;9.33;;;;;-149.00;100.00;66333.84;5082178;27;48404;-74
2022/02/23 00:42:53;;;;;;;;;10.33;8.00;;;;;-149.00;100.00;66333.84;5100899;27;45303;-75
2022/02/23 00:45:19;;;;;;;;;10.33;10.00;;;;;-149.00;100.00;66333.84;5082507;27;45475;-74
2022/02/23 00:47:44;;;;;;;;;11.00;9.00;;;;;-149.00;100.00;66333.84;5100532;27;45421;-74
2022/02/23 00:50:09;;;;;;;;;8.33;7.00;;;;;-149.00;100.00;66333.84;5100567;27;46342;-75
2022/02/23 00:52:35;;;;;;;;;10.67;10.67;;;;;-149.00;100.00;66333.84;5100746;27;45353;-75
2022/02/23 00:55:00;;;;;;;;;11.67;9.67;;;;;-149.00;100.00;66333.84;5100495;27;45319;-75
2022/02/23 00:57:26;;;;;;;;;11.33;10.67;;;;;-149.00;100.00;66333.84;5100575;27;45278;-75
2022/02/23 00:59:51;;;;;;;;;12.33;10.00;;;;;-149.00;100.00;66333.84;5100638;27;45346;-75
2022/02/23 01:02:17;;;;;;;;;10.67;9.33;;;;;-149.00;100.00;66333.84;5082124;27;45254;-75
2022/02/23 01:04:42;;;;;;;;;10.67;9.67;;;;;-149.00;100.00;66333.84;5100627;27;45338;-75
2022/02/23 01:07:10;;;;;;;;;10.00;10.00;;;;;-149.00;100.00;66333.84;5100491;27;45350;-76
2022/02/23 01:09:36;;;;;;;;;9.33;9.33;;;;;-149.00;100.00;66333.84;5099970;27;45301;-75
2022/02/23 01:12:01;;;;;;;;;11.00;10.67;;;;;-149.00;100.00;66333.84;5100411;27;45424;-75
2022/02/23 01:14:26;;;;;;;;;12.67;11.67;;;;;-149.00;100.00;66333.84;5100422;27;45480;-75
2022/02/23 01:16:52;;;;;;;;;7.67;6.67;;;;;-149.00;100.00;66333.84;5100392;27;45393;-74
2022/02/23 01:19:17;;;;;;;;;10.00;10.00;;;;;-149.00;100.00;66333.84;5100060;27;46393;-75
2022/02/23 01:21:42;;;;;;;;;10.00;8.00;;;;;-149.00;100.00;66333.84;5100210;27;45374;-75
2022/02/23 01:24:08;;;;;;;;;8.67;8.33;;;;;-149.00;100.00;66333.84;5081701;27;45352;-75
2022/02/23 01:26:33;;;;;;;;;9.67;8.00;;;;;-149.00;100.00;66333.84;5100075;27;45329;-75
2022/02/23 01:28:58;;;;;;;;;12.00;9.67;;;;;-149.00;100.00;66333.84;5099748;27;45588;-75
2022/02/23 01:31:24;;;;;;;;;12.00;9.33;;;;;-149.00;100.00;66333.84;5100232;27;45428;-75
2022/02/23 01:33:49;;;;;;;;;10.33;8.33;;;;;-149.00;100.00;66333.84;5081736;27;45287;-75
2022/02/23 01:36:15;;;;;;;;;8.67;8.00;;;;;-149.00;100.00;66333.84;5100093;27;45331;-74
2022/02/23 01:38:40;;;;;;;;;10.00;10.00;;;;;-149.00;100.00;66333.84;5099539;27;46248;-75
2022/02/23 01:41:06;;;;;;;;;8.67;7.67;;;;;-149.00;100.00;66333.84;5081599;27;45304;-75
2022/02/23 01:43:31;;;;;;;;;8.67;8.33;;;;;-149.00;100.00;66333.84;5100033;27;45359;-74
2022/02/23 01:45:57;;;;;;;;;8.67;8.33;;;;;-149.00;100.00;66333.84;5099962;27;45386;-75
2022/02/23 01:48:23;;;;;;;;;7.33;7.00;;;;;-149.00;100.00;66333.84;5099824;27;45376;-75
2022/02/23 01:50:48;;;;;;;;;7.00;7.00;;;;;-149.00;100.00;66333.84;5081395;27;45355;-74
2022/02/23 01:53:14;;;;;;;;;9.00;8.33;;;;;-149.00;100.00;66333.84;5099916;27;45337;-75
2022/02/23 01:55:40;;;;;;;;;10.67;7.00;;;;;-149.00;100.00;66333.84;5099743;27;45502;-75
2022/02/23 01:58:06;;;;;;;;;8.67;5.67;;;;;-149.00;100.00;66333.84;5099618;27;46026;-74
2022/02/23 02:00:32;;;;;;;;;7.67;6.67;;;;;-149.00;100.00;66333.84;5081339;27;45308;-75
2022/02/23 02:02:58;;;;;;;;;7.33;7.33;;;;;-149.00;100.00;66333.84;5098508;27;45351;-75
2022/02/23 02:05:23;;;;;;;;;7.00;7.00;;;;;-149.00;100.00;66333.84;5081191;27;45687;-75
2022/02/23 02:07:49;;;;;;;;;9.67;8.00;;;;;-149.00;100.00;66333.84;5099681;27;45394;-75
2022/02/23 02:10:14;;;;;;;;;8.00;7.33;;;;;-149.00;100.00;66333.84;5080969;27;45496;-75
2022/02/23 02:12:41;;;;;;;;;8.33;8.33;;;;;-149.00;100.00;66333.84;5099891;27;45271;-75
2022/02/23 02:15:07;;;;;;;;;6.67;6.67;;;;;-149.00;100.00;66333.84;5099728;27;45370;-75
2022/02/23 02:17:32;;;;;;;;;5.67;5.67;;;;;-149.00;100.00;66333.84;5099194;27;45389;-74
2022/02/23 02:19:58;;;;;;;;;9.33;8.33;;;;;-149.00;100.00;66333.84;5099519;27;45280;-75
2022/02/23 02:22:28;;;;;;;;;11.00;11.00;;;;;-149.00;100.00;66333.84;5099653;27;45254;-75
2022/02/23 02:24:55;;;;;;;;;12.33;9.00;;;;;-149.00;100.00;66333.84;5099208;27;45515;-74
2022/02/23 02:27:20;;;;;;;;;9.67;8.00;;;;;-149.00;100.00;66333.84;5099196;27;45334;-75
2022/02/23 02:29:45;;;;;;;;;9.00;7.33;;;;;-149.00;100.00;66333.84;5080977;27;45805;-75
2022/02/23 02:32:11;;;;;;;;;11.67;11.67;;;;;-149.00;100.00;66333.84;5099666;27;45260;-75
2022/02/23 02:34:38;;;;;;;;;15.00;12.00;;;;;-149.00;100.00;66333.84;5099311;27;45721;-75
2022/02/23 02:37:04;;;;;;;;;13.00;12.33;;;;;-149.00;100.00;66333.84;5080793;27;47355;-75
2022/02/23 02:39:30;;;;;;;;;19.67;17.00;;;;;-149.00;100.00;66333.84;5098726;27;45398;-74
2022/02/23 02:41:56;;;;;;;;;22.67;21.00;;;;;-149.00;100.00;66333.84;5102351;27;45580;-74
2022/02/23 02:44:23;;;;;;;;;23.67;20.67;;;;;-149.00;100.00;66333.84;5084268;27;47341;-75
2022/02/23 02:46:48;;;;;;;;;16.00;15.33;;;;;-149.00;100.00;66333.84;5102531;27;45608;-75
2022/02/23 02:49:13;;;;;;;;;15.00;15.00;;;;;-149.00;100.00;66333.84;5102674;27;45505;-75
2022/02/23 02:51:40;;;;;;;;;14.67;11.33;;;;;-149.00;100.00;66333.84;5102681;27;45334;-75
2022/02/23 02:54:06;;;;;;;;;13.00;12.00;;;;;-149.00;100.00;66333.84;5102329;27;45365;-74
2022/02/23 02:56:32;;;;;;;;;14.00;14.00;;;;;-149.00;100.00;66333.84;5084106;27;48186;-75
2022/02/23 02:58:57;;;;;;;;;14.67;13.33;;;;;-149.00;100.00;66333.84;5102493;27;45318;-75
2022/02/23 03:01:26;;;;;;;;;22.00;18.33;;;;;-149.00;100.00;66333.84;5102661;27;45279;-75
2022/02/23 03:03:52;;;;;;;;;18.67;17.33;;;;;-149.00;100.00;66333.84;5083942;27;46485;-75
2022/02/23 03:06:19;;;;;;;;;17.33;17.33;;;;;-149.00;100.00;66333.84;5102245;27;45305;-75
2022/02/23 03:08:46;;;;;;;;;16.33;13.00;;;;;-149.00;100.00;66333.84;5101977;27;45405;-75
2022/02/23 03:11:11;;;;;;;;;16.33;15.00;;;;;-149.00;100.00;66333.84;5102186;27;45332;-75
2022/02/23 03:13:38;;;;;;;;;15.33;15.33;;;;;-149.00;100.00;66333.84;5102212;27;45251;-75
2022/02/23 03:16:05;;;;;;;;;15.00;14.67;;;;;-149.00;100.00;66333.84;5102105;27;45226;-75
2022/02/23 03:18:31;;;;;;;;;11.00;9.67;;;;;-149.00;100.00;66333.84;5102009;27;45311;-75
2022/02/23 03:20:56;;;;;;;;;10.33;10.33;;;;;-149.00;100.00;66333.84;5102202;27;45361;-75
2022/02/23 03:23:21;;;;;;;;;13.00;13.00;;;;;-149.00;100.00;66333.84;5083411;27;46953;-75
2022/02/23 03:25:47;;;;;;;;;7.33;6.67;;;;;-149.00;100.00;66333.84;5101975;27;45317;-75
2022/02/23 03:28:12;;;;;;;;;16.00;14.00;;;;;-149.00;100.00;66333.84;5101933;27;45353;-75
2022/02/23 03:30:41;;;;;;;;;13.00;12.00;;;;;-149.00;100.00;66333.84;5083617;27;45327;-74
2022/02/23 03:33:07;;;;;;;;;15.00;14.33;;;;;-149.00;100.00;66333.84;5101991;27;45260;-75
2022/02/23 03:35:32;;;;;;;;;12.67;11.33;;;;;-149.00;100.00;66333.84;5100370;27;47141;-75
2022/02/23 03:37:58;;;;;;;;;8.67;8.67;;;;;-149.00;100.00;66333.84;5101454;27;45409;-74
2022/02/23 03:40:24;;;;;;;;;9.67;8.67;;;;;-149.00;100.00;66333.84;5083448;27;45240;-75
2022/02/23 03:42:51;;;;;;;;;8.00;7.00;;;;;-149.00;100.00;66333.84;5101747;27;45374;-75
2022/02/23 03:45:16;;;;;;;;;7.00;7.00;;;;;-149.00;100.00;66333.84;5101546;27;45968;-75
2022/02/23 03:47:42;;;;;;;;;10.67;7.00;;;;;-149.00;100.00;66333.84;5101412;27;45393;-75
2022/02/23 03:50:07;;;;;;;;;8.00;7.33;;;;;-149.00;100.00;66333.84;5083561;27;45315;-75
2022/02/23 03:52:33;;;;;;;;;10.67;7.33;;;;;-149.00;100.00;66333.84;5101425;27;45453;-75
2022/02/23 03:54:58;;;;;;;;;7.33;7.00;;;;;-149.00;100.00;66333.84;5099973;27;47508;-74
2022/02/23 03:57:24;;;;;;;;;8.67;8.67;;;;;-149.00;100.00;66333.84;5101611;27;45332;-75
2022/02/23 03:59:49;;;;;;;;;6.67;6.67;;;;;-149.00;100.00;66333.84;5101761;27;45280;-75
2022/02/23 04:02:14;;;;;;;;;9.67;8.67;;;;;-149.00;100.00;66333.84;5101501;27;45500;-75
2022/02/23 04:04:40;;;;;;;;;7.33;6.67;;;;;-149.00;100.00;66333.84;5099826;27;48333;-75
2022/02/23 04:07:07;;;;;;;;;12.00;10.67;;;;;-149.00;100.00;66333.84;5101456;27;45335;-75
2022/02/23 04:09:32;;;;;;;;;14.67;11.67;;;;;-149.00;100.00;66333.84;5101052;27;45275;-75
2022/02/23 04:11:58;;;;;;;;;7.00;7.00;;;;;-149.00;100.00;66333.84;5082779;27;47482;-75
2022/02/23 04:14:24;;;;;;;;;8.33;8.33;;;;;-149.00;100.00;66333.84;5082819;27;46590;-74
2022/02/23 04:16:49;;;;;;;;;6.33;6.33;;;;;-149.00;100.00;66333.84;5101142;27;45294;-75
2022/02/23 04:19:15;;;;;;;;;10.33;7.00;;;;;-149.00;100.00;66333.84;5101234;27;45298;-75
2022/02/23 04:21:40;;;;;;;;;8.33;8.33;;;;;-149.00;100.00;66333.84;5101157;27;45413;-75
2022/02/23 04:24:05;;;;;;;;;10.00;7.33;;;;;-149.00;100.00;66333.84;5100630;27;45376;-75
2022/02/23 04:26:31;;;;;;;;;9.67;9.67;;;;;-149.00;100.00;66333.84;5101142;27;45350;-75
2022/02/23 04:28:56;;;;;;;;;6.00;6.00;;;;;-149.00;100.00;66333.84;5101223;27;45309;-75
2022/02/23 04:31:22;;;;;;;;;11.00;8.33;;;;;-149.00;100.00;66333.84;5082737;27;45991;-76
2022/02/23 04:33:47;;;;;;;;;6.00;6.00;;;;;-149.00;100.00;66333.84;5082456;27;47056;-75
2022/02/23 04:36:12;;;;;;;;;7.33;7.33;;;;;-149.00;100.00;66333.84;5082634;27;45341;-75
2022/02/23 04:38:38;;;;;;;;;11.67;7.33;;;;;-149.00;100.00;66333.84;5100796;27;45340;-75
2022/02/23 04:41:07;;;;;;;;;10.67;8.67;;;;;-149.00;100.00;66333.84;5082098;27;46261;-75
2022/02/23 04:43:33;;;;;;;;;11.33;10.67;;;;;-149.00;100.00;66333.84;5100475;27;45525;-75
2022/02/23 04:46:08;;;;;;;;;17.67;12.00;;;;;-149.00;100.00;66333.84;5100943;27;45269;-75
2022/02/23 04:48:34;;;;;;;;;11.67;10.67;;;;;-149.00;100.00;66333.84;5100826;27;45252;-75
2022/02/23 04:51:00;;;;;;;;;13.67;12.33;;;;;-149.00;100.00;66333.84;5100830;27;45542;-75
2022/02/23 04:53:25;;;;;;;;;8.67;8.67;;;;;-149.00;100.00;66333.84;5100366;27;46377;-75
2022/02/23 04:55:51;;;;;;;;;10.00;10.00;;;;;-149.00;100.00;66333.84;5100394;27;45398;-75
2022/02/23 04:58:16;;;;;;;;;10.00;9.00;;;;;-149.00;100.00;66333.84;5100710;27;45279;-75
2022/02/23 05:00:42;;;;;;;;;14.33;14.00;;;;;-149.00;100.00;66333.84;5100526;27;45289;-75
2022/02/23 05:03:07;;;;;;;;;17.33;13.33;;;;;-149.00;100.00;66333.84;5081397;27;48177;-75
2022/02/23 05:05:33;;;;;;;;;12.00;11.67;;;;;-149.00;100.00;66333.84;5081910;27;45529;-75
2022/02/23 05:07:59;;;;;;;;;16.67;13.67;;;;;-149.00;100.00;66333.84;5100390;27;45291;-75
2022/02/23 05:10:25;;;;;;;;;14.00;11.67;;;;;-149.00;100.00;66333.84;5100267;27;45323;-75
2022/02/23 05:12:50;;;;;;;;;13.00;13.00;;;;;-149.00;100.00;66333.84;5082025;27;47194;-75
2022/02/23 05:15:16;;;;;;;;;12.00;10.33;;;;;-149.00;100.00;66333.84;5100519;27;45353;-75
2022/02/23 05:17:41;;;;;;;;;13.33;13.33;;;;;-149.00;100.00;66333.84;5100294;27;45283;-75
2022/02/23 05:20:07;;;;;;;;;12.00;11.00;;;;;-149.00;100.00;66333.84;5100328;27;45261;-75
2022/02/23 05:22:36;;;;;;;;;13.67;12.00;;;;;-149.00;100.00;66333.84;5100112;27;45996;-76
2022/02/23 05:25:02;;;;;;;;;11.67;11.67;;;;;-149.00;100.00;66333.84;5099896;27;45390;-76
2022/02/23 05:27:28;;;;;;;;;11.00;11.00;;;;;-149.00;100.00;66333.84;5100322;27;45366;-76
2022/02/23 05:29:53;;;;;;;;;9.67;7.67;;;;;-149.00;100.00;66333.84;5100111;27;45388;-75
2022/02/23 05:32:19;;;;;;;;;10.33;10.00;;;;;-149.00;100.00;66333.84;5100342;27;45381;-76
2022/02/23 05:34:45;;;;;;;;;13.67;11.00;;;;;-149.00;100.00;66333.84;5100127;27;45377;-75
2022/02/23 05:37:11;;;;;;;;;11.00;11.00;;;;;-149.00;100.00;66333.84;5100410;27;45357;-76
2022/02/23 05:39:36;;;;;;;;;12.33;11.33;;;;;-149.00;100.00;66333.84;5086767;27;45379;-75
2022/02/23 05:42:02;;;;;;;;;12.67;11.67;;;;;-149.00;100.00;66333.84;5117520;27;46384;-76
2022/02/23 05:44:27;;;;;;;;;12.00;11.33;;;;;-149.00;100.00;66333.84;5092192;27;45332;-75
2022/02/23 05:46:53;;;;;;;;;17.67;15.00;;;;;-149.00;100.00;66333.84;5100977;27;45416;-76
2022/02/23 05:49:18;;;;;;;;;16.33;14.67;;;;;-149.00;100.00;66333.84;5120686;27;45577;-76
2022/02/23 05:51:46;;;;;;;;;21.67;18.00;;;;;-149.00;100.00;66333.84;5120512;27;45541;-75
2022/02/23 05:54:12;;;;;;;;;25.25;22.75;;;;;-149.00;100.00;66333.84;5120195;27;45291;-76
2022/02/23 05:56:38;;;;;;;;;27.00;24.00;;;;;-149.00;100.00;66333.84;5120542;27;45395;-75
2022/02/23 05:59:03;;;;;;;;;24.75;24.75;;;;;-149.00;100.00;66333.84;5120303;27;45317;-75
2022/02/23 06:01:29;;;;;;;;;23.25;21.25;;;;;-149.00;100.00;66333.84;5120424;27;45968;-75
2022/02/23 06:03:55;;;;;;;;;20.00;20.00;;;;;-149.00;100.00;66333.84;5120418;27;45390;-75
2022/02/23 06:06:20;;;;;;;;;26.25;24.25;;;;;-149.00;100.00;66333.84;5120421;27;45292;-75
2022/02/23 06:08:46;;;;;;;;;18.67;16.33;;;;;-149.00;100.00;66333.84;5120039;27;45413;-75
2022/02/23 06:11:13;;;;;;;;;18.33;18.33;;;;;-149.00;100.00;66333.84;5101541;27;47607;-76
2022/02/23 06:13:39;;;;;;;;;19.33;18.33;;;;;-149.00;100.00;66333.84;5120383;27;45320;-76
2022/02/23 06:16:04;;;;;;;;;25.75;23.50;;;;;-149.00;100.00;66333.84;5122200;27;45171;-75
2022/02/23 06:18:30;;;;;;;;;22.00;22.00;;;;;-149.00;100.00;66333.84;5112023;27;45374;-75
2022/02/23 06:20:55;;;;;;;;;60.75;48.25;;;;;-149.00;100.00;66333.84;5084828;27;47467;-75
2022/02/23 06:23:25;;;;;;;;;27.00;25.50;;;;;-149.00;100.00;66333.84;5084217;27;45806;-75
2022/02/23 06:25:51;;;;;;;;;22.33;20.67;;;;;-149.00;100.00;66333.84;5084825;27;45460;-75
2022/02/23 06:28:17;;;;;;;;;25.50;23.25;;;;;-149.00;100.00;66333.84;5102922;27;45545;-75
2022/02/23 06:30:42;;;;;;;;;28.50;27.75;;;;;-149.00;100.00;66333.84;5084478;27;46787;-74
2022/02/23 06:33:11;;;;;;;;;30.75;26.00;;;;;-149.00;100.00;66333.84;5084528;27;45291;-75
2022/02/23 06:35:37;;;;;;;;;28.25;23.75;;;;;-149.00;100.00;66333.84;5102926;27;45583;-75
2022/02/23 06:38:04;;;;;;;;;31.75;29.50;;;;;-149.00;100.00;66333.84;5101397;27;45376;-75
2022/02/23 06:40:29;;;;;;;;;30.75;26.00;;;;;-149.00;100.00;66333.84;5118880;27;45392;-74
2022/02/23 06:42:55;;;;;;;;;28.25;25.00;;;;;-149.00;100.00;66333.84;5101090;27;45512;-74
2022/02/23 06:45:20;;;;;;;;;40.00;35.00;;;;;-149.00;100.00;66333.84;5105160;27;45457;-75
2022/02/23 06:47:46;;;;;;;;;34.75;32.50;;;;;-149.00;100.00;66333.84;5123287;27;45382;-74
2022/02/23 06:50:12;;;;;;;;;42.50;38.25;;;;;-149.00;100.00;66333.84;5123312;27;46197;-75
2022/02/23 06:52:39;;;;;;;;;41.25;33.75;;;;;-149.00;100.00;66333.84;5123390;27;45270;-74
2022/02/23 06:55:06;;;;;;;;;41.00;35.00;;;;;-149.00;100.00;66333.84;5123193;27;45608;-74
2022/02/23 06:57:38;;;;;;;;;36.75;31.75;;;;;-149.00;100.00;66333.84;5123099;27;45494;-74
2022/02/23 07:00:06;;;;;;;;;37.00;32.50;;;;;-149.00;100.00;66333.84;5104541;27;48411;-74
2022/02/23 07:02:32;;;;;;;;;39.25;34.25;;;;;-149.00;100.00;66333.84;5123009;27;45298;-74
2022/02/23 07:04:58;;;;;;;;;40.75;35.00;;;;;-149.00;100.00;66333.84;5123271;27;45342;-74
2022/02/23 07:07:23;;;;;;;;;39.75;34.25;;;;;-149.00;100.00;66333.84;5122808;27;45357;-74
2022/02/23 07:09:49;;;;;;;;;34.50;32.75;;;;;-149.00;100.00;66333.84;5122565;27;46007;-74
2022/02/23 07:12:14;;;;;;;;;42.25;36.25;;;;;-149.00;100.00;66333.84;5122976;27;45369;-74
2022/02/23 07:14:39;;;;;;;;;33.75;28.75;;;;;-149.00;100.00;66333.84;5104444;27;45375;-74
2022/02/23 07:17:05;;;;;;;;;38.00;33.25;;;;;-149.00;100.00;66333.84;5122862;27;45623;-74
2022/02/23 07:19:30;;;;;;;;;33.00;31.75;;;;;-149.00;100.00;66333.84;5102284;27;45566;-74
2022/02/23 07:21:56;;;;;;;;;30.75;29.25;;;;;-149.00;100.00;66333.84;5081269;27;45325;-74
2022/02/23 07:24:21;;;;;;;;;35.00;32.75;;;;;-149.00;100.00;66333.84;5099143;27;45382;-74
2022/02/23 07:26:47;;;;;;;;;36.75;34.50;;;;;-149.00;100.00;66333.84;5091408;27;45266;-74
2022/02/23 07:29:13;;;;;;;;;36.25;33.50;;;;;-149.00;100.00;66333.84;5095845;27;45969;-73
2022/02/23 07:31:40;;;;;;;;;34.75;32.50;;;;;-149.00;100.00;66333.84;5093892;27;45512;-74
2022/02/23 07:34:06;;;;;;;;;37.50;33.00;;;;;-149.00;100.00;66333.84;5092807;27;45511;-74
2022/02/23 07:36:31;;;;;;;;;29.75;29.75;;;;;-149.00;100.00;66333.84;5095651;27;45494;-74
2022/02/23 07:38:57;;;;;;;;;31.25;27.25;;;;;-149.00;100.00;66333.84;5083494;27;45411;-74
2022/02/23 07:41:23;;;;;;;;;35.25;31.00;;;;;-149.00;100.00;66333.84;5090820;27;45377;-74
2022/02/23 07:43:50;;;;;;;;;31.00;27.75;;;;;-149.00;100.00;66333.84;5089255;27;46327;-74
2022/02/23 07:46:16;;;;;;;;;33.50;31.50;;;;;-149.00;100.00;66333.84;5090422;27;45734;-75
2022/02/23 07:48:42;;;;;;;;;31.00;27.25;;;;;-149.00;100.00;66333.84;5082161;27;48210;-75
2022/02/23 07:51:07;;;;;;;;;33.00;28.50;;;;;-149.00;100.00;66333.84;5092194;27;45173;-75
2022/02/23 07:53:33;;;;;;;;;28.75;28.75;;;;;-149.00;100.00;66333.84;5092342;27;45339;-75
2022/02/23 07:55:59;;;;;;;;;29.25;26.50;;;;;-149.00;100.00;66333.84;5083463;27;45474;-75
2022/02/23 07:58:24;;;;;;;;;28.50;27.75;;;;;-149.00;100.00;66333.84;5092332;27;45455;-75
2022/02/23 08:00:49;;;;;;;;;30.75;27.25;;;;;-149.00;100.00;66333.84;5092160;27;45408;-75
2022/02/23 08:03:15;;;;;;;;;28.75;28.75;;;;;-149.00;100.00;66333.84;5072125;27;45446;-75
2022/02/23 08:05:42;;;;;;;;;33.00;28.25;;;;;-149.00;100.00;66333.84;5091618;27;45524;-74
2022/02/23 08:08:08;;;;;;;;;36.75;34.25;;;;;-149.00;100.00;66333.84;5092143;27;45349;-75
2022/02/23 08:10:33;;;;;;;;;37.75;34.00;;;;;-149.00;100.00;66333.84;5091953;27;45524;-74
2022/02/23 08:12:59;;;;;;;;;40.25;34.75;;;;;-149.00;100.00;66333.84;5093396;27;45319;-74
2022/02/23 08:20:56;;;;;;;;;51.25;43.75;;;;;-149.00;100.00;66333.84;5101129;27;45290;-74
2022/02/23 08:23:21;;;;;;;;;35.50;33.50;;;;;-149.00;100.00;66333.84;5100424;27;45525;-74
2022/02/23 08:25:47;;;;;;;;;35.75;33.50;;;;;-149.00;100.00;66333.84;5080693;27;47333;-74
2022/02/23 08:28:12;;;;;;;;;33.50;32.75;;;;;-149.00;100.00;66333.84;5100781;27;45228;-74
2022/02/23 08:30:38;;;;;;;;;30.25;29.50;;;;;-149.00;100.00;66333.84;5101105;27;45236;-75
2022/02/23 08:33:03;;;;;;;;;35.00;32.50;;;;;-149.00;100.00;66333.84;5100806;27;45247;-75
2022/02/23 08:35:30;;;;;;;;;37.50;35.75;;;;;-149.00;100.00;66333.84;5098856;27;45502;-74
2022/02/23 08:37:55;;;;;;;;;40.75;33.75;;;;;-149.00;100.00;66333.84;5097195;27;46787;-74
2022/02/23 08:40:21;;;;;;;;;38.25;35.50;;;;;-149.00;100.00;66333.84;5080074;27;45608;-75
2022/02/23 08:42:46;;;;;;;;;41.25;35.75;;;;;-149.00;100.00;66333.84;5099107;27;45440;-75
2022/02/23 08:45:12;;;;;;;;;42.75;38.00;;;;;-149.00;100.00;66333.84;5098444;27;45382;-75
2022/02/23 08:47:37;;;;;;;;;40.75;35.25;;;;;-149.00;100.00;66333.84;5099199;27;45395;-75
2022/02/23 08:50:04;;;;;;;;;44.25;38.25;;;;;-149.00;100.00;66333.84;5100696;27;45315;-75
2022/02/23 08:52:29;;;;;;;;;44.25;36.75;;;;;-149.00;100.00;66333.84;5100865;27;45343;-75
2022/02/23 08:54:54;;;;;;;;;30.50;29.50;;;;;-149.00;100.00;66333.84;5100045;27;45552;-75
2022/02/23 08:57:20;;;;;;;;;31.00;29.75;;;;;-149.00;100.00;66333.84;5100569;27;46526;-75
2022/02/23 08:59:45;;;;;;;;;36.33;32.67;;;;;-149.00;100.00;66333.84;5100493;27;45212;-75
2022/02/23 09:02:10;;;;;;;;;30.00;27.75;;;;;-149.00;100.00;66333.84;5082217;27;45369;-75
2022/02/23 09:04:36;;;;;;;;;29.25;28.50;;;;;-149.00;100.00;66333.84;5100672;27;45343;-75
2022/02/23 09:07:01;;;;;;;;;28.75;26.50;;;;;-149.00;100.00;66333.84;5100392;27;45210;-75
2022/02/23 09:09:26;;;;;;;;;28.33;27.00;;;;;-149.00;100.00;66333.84;5081476;27;46030;-75
2022/02/23 09:11:53;;;;;;;;;30.33;26.00;;;;;-149.00;100.00;66333.84;5100655;27;45344;-75
2022/02/23 09:14:19;;;;;;;;;30.25;28.50;;;;;-149.00;100.00;66333.84;5100478;27;45240;-75
2022/02/23 09:16:45;;;;;;;;;32.75;32.25;;;;;-149.00;100.00;66333.84;5081858;27;47306;-74
2022/02/23 09:19:11;;;;;;;;;31.67;30.00;;;;;-149.00;100.00;66333.84;5100015;27;45682;-75
2022/02/23 09:21:36;;;;;;;;;31.67;27.33;;;;;-149.00;100.00;66333.84;5100414;27;45425;-74
2022/02/23 09:24:02;;;;;;;;;27.33;25.67;;;;;-149.00;100.00;66333.84;5099557;27;45548;-75
2022/02/23 09:26:29;;;;;;;;;32.00;29.00;;;;;-149.00;100.00;66333.84;5100289;27;46267;-75
2022/02/23 09:28:54;;;;;;;;;27.67;27.00;;;;;-149.00;100.00;66333.84;5100036;27;45406;-75
2022/02/23 09:31:20;;;;;;;;;30.33;28.33;;;;;-149.00;100.00;66333.84;5100306;27;45256;-75
2022/02/23 09:33:48;;;;;;;;;27.00;26.67;;;;;-149.00;100.00;66333.84;5100117;27;45215;-74
2022/02/23 09:36:14;;;;;;;;;30.33;28.00;;;;;-149.00;100.00;66333.84;5099145;27;45915;-75
2022/02/23 09:38:41;;;;;;;;;32.67;31.00;;;;;-149.00;100.00;66333.84;5099792;27;45414;-74
2022/02/23 09:41:09;;;;;;;;;28.33;25.33;;;;;-149.00;100.00;66333.84;5081705;27;45423;-75
2022/02/23 09:43:35;;;;;;;;;26.33;24.33;;;;;-149.00;100.00;66333.84;5081529;27;46803;-74
2022/02/23 09:46:03;;;;;;;;;40.67;32.00;;;;;-149.00;100.00;66333.84;5080689;27;47244;-73
2022/02/23 09:48:31;;;;;;;;;35.33;30.33;;;;;-149.00;100.00;66333.84;5062648;28;46047;-75
2022/02/23 09:50:59;;;;;;;;;29.33;27.33;;;;;-149.00;100.00;66333.84;5081371;28;45389;-73
2022/02/23 09:53:24;;;;;;;;;32.33;30.00;;;;;-149.00;100.00;66333.84;5082921;28;45313;-74
2022/02/23 09:55:56;;;;;;;;;35.33;32.33;;;;;-149.00;100.00;66333.84;5086964;27;48083;-74
2022/02/23 09:58:22;;;;;;;;;28.00;26.00;;;;;-149.00;100.00;66333.84;5097954;27;45471;-74
2022/02/23 10:00:49;;;;;;;;;25.67;24.00;;;;;-149.00;100.00;66333.84;5102490;27;45464;-74
2022/02/23 10:03:15;;;;;;;;;25.00;22.67;;;;;-149.00;100.00;66333.84;5101813;27;45441;-74
2022/02/23 10:05:43;;;;;;;;;23.33;23.33;;;;;-149.00;100.00;66333.84;5101534;27;46124;-74
2022/02/23 10:08:10;;;;;;;;;17.33;17.33;;;;;-149.00;100.00;66333.84;5102224;27;45465;-74
2022/02/23 10:10:41;;;;;;;;;27.00;24.67;;;;;-149.00;100.00;66333.84;5092739;27;45453;-74
2022/02/23 10:13:08;;;;;;;;;25.00;23.00;;;;;-149.00;100.00;66333.84;5102322;27;45389;-74
2022/02/23 10:15:42;;;;;;;;;25.00;23.33;;;;;-149.00;100.00;66333.84;5110741;27;46187;-74
2022/02/23 10:18:09;;;;;;;;;24.33;23.67;;;;;-149.00;100.00;66333.84;5103091;27;45393;-74
2022/02/23 10:20:39;;;;;;;;;22.33;19.67;;;;;-149.00;100.00;66333.84;5112802;27;45413;-75
2022/02/23 10:23:20;;;;;;;;;23.33;19.33;;;;;-149.00;100.00;66333.84;5123246;27;46215;-74
2022/02/23 10:26:01;;;;;;;;;21.67;20.00;;;;;-149.00;100.00;66333.84;5123526;27;45600;-73
2022/02/23 10:28:32;;;;;;;;;22.67;21.00;;;;;-149.00;100.00;66333.84;5123444;27;45285;-74
2022/02/23 10:31:00;;;;;;;;;23.00;20.33;;;;;-149.00;100.00;66333.84;5123647;27;45340;-74
2022/02/23 10:33:30;;;;;;;;;26.00;25.00;;;;;-149.00;100.00;66333.84;5123431;27;45531;-74
2022/02/23 10:36:06;;;;;;;;;23.00;22.00;;;;;-149.00;100.00;66333.84;5123398;27;45697;-74
2022/02/23 10:38:33;;;;;;;;;20.00;18.00;;;;;-149.00;100.00;66333.84;5122961;27;45366;-74
2022/02/23 10:41:01;;;;;;;;;21.00;18.33;;;;;-149.00;100.00;66333.84;5123281;27;45416;-74
2022/02/23 10:43:34;;;;;;;;;19.33;17.33;;;;;-149.00;100.00;66333.84;5123405;27;45191;-75
2022/02/23 10:46:05;;;;;;;;;17.33;16.00;;;;;-149.00;100.00;66333.84;5114336;27;45428;-74
2022/02/23 10:48:35;;;;;;;;;15.00;13.33;;;;;-149.00;100.00;66333.84;5083234;27;45451;-74
2022/02/23 10:51:01;;;;;;;;;17.00;14.67;;;;;-149.00;100.00;66333.84;5096547;27;45477;-74
2022/02/23 10:53:29;;;;;;;;;14.33;11.33;;;;;-149.00;100.00;66333.84;5123000;27;45333;-75
2022/02/23 10:55:55;;;;;;;;;14.33;13.33;;;;;-149.00;100.00;66333.84;5104368;27;47340;-74
2022/02/23 10:58:24;;;;;;;;;16.33;15.00;;;;;-149.00;100.00;66333.84;5123131;27;45334;-73